Terminal Aerodrome Forecast
Issued by NWS

Home | Current Version | Previous Version | Text Only | Print | Product List | Glossary On
Versions: 1 2 3 4 5 6 7 8 9 10 11 12 13 14
366
FTUS45 KTFX 290520
TAFCTB
TAF
KCTB 290520Z 2906/3006 24015KT P6SM SCT070
      TEMPO 2906/2909 24020G25KT
     FM291600 25020G30KT P6SM BKN070
     FM300300 24015KT P6SM BKN060=

USA.gov is the U.S. government's official web portal to all federal, state and local government web resources and services.